Terminal Aerodrome Forecast
Issued by NWS Pueblo, CO

Home | Current Version | Previous Version | Text Only | Print | Product List | Glossary On
Versions: 1 2 3 4 5 6 7 8 9 10 11 12 13 14 15 16 17 18 19 20 21 22 23 24 25 26
000
FTUS45 KPUB 291120
TAFALS
TAF
KALS 291120Z 2912/3012 VRB05KT P6SM SCT110 OVC250
     FM291800 18007KT P6SM SCT050 BKN110
     FM292100 16007KT P6SM VCSH BKN050
     FM300800 VRB05KT P6SM BKN030 PROB30 3008/3012 3SM -SHSN BKN015=

USA.gov is the U.S. government's official web portal to all federal, state and local government web resources and services.